createdAt,value
2016-12-05T00:00:09.763Z,0.45
2016-12-05T00:01:25.551Z,0.47
2016-12-05T00:02:43.496Z,0.51
2016-12-05T00:04:02.594Z,0.39
2016-12-05T00:05:18.453Z,0.4
2016-12-05T00:06:34.738Z,0.45
2016-12-05T00:07:48.960Z,0.48
2016-12-05T00:09:03.503Z,0.55
2016-12-05T00:10:21.714Z,0.56
2016-12-05T00:11:36.673Z,0.61
2016-12-05T00:12:51.123Z,0.66
2016-12-05T00:14:06.003Z,0.39
2016-12-05T00:15:20.221Z,0.34
2016-12-05T00:16:34.806Z,0.26
2016-12-05T00:17:48.534Z,0.15
2016-12-05T00:19:02.789Z,0.06
2016-12-05T00:20:17.380Z,-0.06
2016-12-05T00:21:31.704Z,-0.06
2016-12-05T00:22:46.010Z,0.11
2016-12-05T00:24:00.393Z,0.12
2016-12-05T00:25:14.505Z,-0.12
2016-12-05T00:26:28.943Z,-0.02
2016-12-05T00:27:43.050Z,0.08
2016-12-05T00:28:57.386Z,0.05
2016-12-05T00:30:12.277Z,-0.03
2016-12-05T00:31:26.316Z,-0.02
2016-12-05T00:32:40.520Z,-0.06
2016-12-05T00:33:55.167Z,-0.06
2016-12-05T00:35:09.721Z,0.05
2016-12-05T00:36:23.792Z,0.16
2016-12-05T00:37:38.158Z,0.26
2016-12-05T00:38:52.165Z,0.26
2016-12-05T00:40:06.571Z,0.33
2016-12-05T00:41:21.195Z,0.36
2016-12-05T00:42:35.487Z,0.45
2016-12-05T00:43:50.378Z,0.45
2016-12-05T00:45:04.424Z,0.42
2016-12-05T00:46:18.734Z,0.44
2016-12-05T00:47:33.152Z,0.51
2016-12-05T00:49:02.422Z,0.52
2016-12-05T00:50:17.412Z,0.55
2016-12-05T00:51:32.205Z,0.61
2016-12-05T00:52:48.492Z,0.49
2016-12-05T00:54:02.778Z,0.51
2016-12-05T00:55:16.950Z,0.66
2016-12-05T00:56:31.226Z,0.49
2016-12-05T00:57:45.824Z,0.55
2016-12-05T00:59:00.801Z,0.55
2016-12-05T01:00:15.218Z,0.63
2016-12-05T01:01:29.771Z,0.58
2016-12-05T01:02:43.742Z,0.49
2016-12-05T01:03:58.638Z,0.66
2016-12-05T01:05:14.273Z,0.58
2016-12-05T01:06:28.929Z,0.63
2016-12-05T01:07:43.211Z,0.59
2016-12-05T01:08:57.038Z,0.49
2016-12-05T01:10:25.738Z,0.47
2016-12-05T01:11:40.393Z,0.44
2016-12-05T01:12:54.586Z,0.39
2016-12-05T01:14:09.350Z,0.39
2016-12-05T01:15:24.210Z,0.44
2016-12-05T01:16:38.198Z,0.39
2016-12-05T01:17:52.641Z,0.37
2016-12-05T01:19:06.546Z,0.42
2016-12-05T01:20:20.446Z,0.45
2016-12-05T01:21:34.700Z,0.39
2016-12-05T01:22:48.666Z,0.37
2016-12-05T01:24:03.820Z,0.33
2016-12-05T01:25:17.740Z,0.3
2016-12-05T01:26:32.203Z,0.39
2016-12-05T01:27:48.539Z,0.34
2016-12-05T01:29:02.573Z,0.06
2016-12-05T01:30:17.225Z,-0.38
2016-12-05T01:31:31.277Z,-0.42
2016-12-05T01:32:45.319Z,-0.48
2016-12-05T01:33:59.411Z,-0.28
2016-12-05T01:35:13.978Z,-0.21
2016-12-05T01:36:28.615Z,-0.07
2016-12-05T01:37:42.638Z,-0.09
2016-12-05T01:38:56.667Z,-0.03
2016-12-05T01:40:11.055Z,-0.06
2016-12-05T01:41:25.075Z,0.01
2016-12-05T01:42:54.453Z,0.2
2016-12-05T01:44:08.962Z,0.18
2016-12-05T01:45:23.072Z,0.31
2016-12-05T01:46:37.085Z,0.33
2016-12-05T01:47:51.853Z,0.27
2016-12-05T01:49:05.802Z,0.27
2016-12-05T01:50:19.693Z,0.29
2016-12-05T01:51:33.568Z,0.27
2016-12-05T01:52:47.614Z,0.33
2016-12-05T01:54:02.568Z,0.31
2016-12-05T01:55:16.788Z,0.29
2016-12-05T01:56:31.036Z,0.34
2016-12-05T01:57:44.788Z,0.33
2016-12-05T01:58:58.809Z,0.26
2016-12-05T02:00:13.391Z,0.06
2016-12-05T02:01:27.362Z,-0.17
2016-12-05T02:02:41.379Z,-0.49
2016-12-05T02:03:55.554Z,-0.72
2016-12-05T02:05:09.789Z,-0.91
2016-12-05T02:06:24.431Z,-1.09
2016-12-05T02:07:38.309Z,-1.19
2016-12-05T02:08:52.162Z,-1.19
2016-12-05T02:10:06.275Z,-1.19
2016-12-05T02:11:20.309Z,-1.01
2016-12-05T02:12:35.198Z,-1.15
2016-12-05T02:13:49.610Z,-1.32
2016-12-05T02:15:03.515Z,-1.39
2016-12-05T02:16:17.768Z,-1.43
2016-12-05T02:17:31.941Z,-1.39
2016-12-05T02:18:46.750Z,-1.48
2016-12-05T02:20:00.531Z,-1.5
2016-12-05T02:21:14.381Z,-1.53
2016-12-05T02:22:29.136Z,-1.51
2016-12-05T02:23:43.042Z,-1.42
2016-12-05T02:24:57.407Z,-1.12
2016-12-05T02:26:11.289Z,-0.97
2016-12-05T02:27:25.298Z,-0.64
2016-12-05T02:28:39.760Z,-0.54
2016-12-05T02:29:53.650Z,-0.54
2016-12-05T02:31:07.966Z,-0.75
2016-12-05T02:32:22.047Z,-0.67
2016-12-05T02:33:36.135Z,-0.77
2016-12-05T02:34:50.497Z,-0.97
2016-12-05T02:36:04.545Z,-1.15
2016-12-05T02:37:19.450Z,-1.27
2016-12-05T02:38:35.033Z,-1.46
2016-12-05T02:39:50.731Z,-1.43
2016-12-05T02:41:04.925Z,-1.61
2016-12-05T02:42:18.732Z,-1.35
2016-12-05T02:43:32.740Z,-1.27
2016-12-05T02:44:49.028Z,-1.06
2016-12-05T02:46:03.436Z,-0.85
2016-12-05T02:47:17.692Z,-0.63
2016-12-05T02:48:31.351Z,-0.48
2016-12-05T02:49:45.580Z,-0.36
2016-12-05T02:50:59.393Z,-0.27
2016-12-05T02:52:13.251Z,-0.21
2016-12-05T02:53:27.761Z,-0.09
2016-12-05T02:54:41.695Z,-0.1
2016-12-05T02:56:11.642Z,-0.1
2016-12-05T02:57:25.574Z,-0.07
2016-12-05T02:58:40.005Z,-0.13
2016-12-05T02:59:54.306Z,-0.09
2016-12-05T03:01:08.876Z,-0.07
2016-12-05T03:02:23.090Z,-0.02
2016-12-05T03:03:37.058Z,-0.05
2016-12-05T03:04:51.748Z,-0.1
2016-12-05T03:06:06.371Z,0.01
2016-12-05T03:07:20.725Z,0.02
2016-12-05T03:08:34.630Z,-0.2
2016-12-05T03:09:48.610Z,-0.46
2016-12-05T03:11:02.772Z,-0.85
2016-12-05T03:12:17.156Z,-1.14
2016-12-05T03:13:31.459Z,-1.36
2016-12-05T03:15:00.564Z,-1.35
2016-12-05T03:16:14.958Z,-1.57
2016-12-05T03:17:29.255Z,-1.61
2016-12-05T03:18:43.307Z,-1.57
2016-12-05T03:20:26.756Z,-1.43
2016-12-05T03:21:40.825Z,-1.35
2016-12-05T03:22:54.848Z,-1.15
2016-12-05T03:24:09.531Z,-0.97
2016-12-05T03:25:23.486Z,-0.84
2016-12-05T03:26:37.570Z,-0.67
2016-12-05T03:30:04.764Z,-0.53
2016-12-05T03:31:19.068Z,-0.54
2016-12-05T03:32:35.859Z,-0.42
2016-12-05T03:33:55.096Z,-0.49
2016-12-05T03:35:17.185Z,-0.38
2016-12-05T03:36:39.136Z,-0.33
2016-12-05T03:39:33.012Z,-0.33
2016-12-05T03:40:55.984Z,-0.3
2016-12-05T03:42:20.142Z,-0.27
2016-12-05T03:43:39.928Z,-0.18
2016-12-05T03:44:57.952Z,-0.23
2016-12-05T03:46:12.739Z,-0.18
2016-12-05T03:47:27.292Z,-0.2
2016-12-05T03:48:41.362Z,-0.2
2016-12-05T03:49:55.279Z,-0.36
2016-12-05T03:51:09.363Z,-0.3
2016-12-05T03:52:23.458Z,-0.49
2016-12-05T03:53:38.056Z,-0.53
2016-12-05T03:54:52.197Z,-0.53
2016-12-05T03:56:06.011Z,-0.38
2016-12-05T03:57:20.134Z,-0.33
2016-12-05T03:58:34.013Z,-0.33
2016-12-05T03:59:48.219Z,-0.42
2016-12-05T04:01:02.422Z,-0.54
2016-12-05T04:02:16.705Z,-0.45
2016-12-05T04:03:31.051Z,-0.38
2016-12-05T04:04:48.065Z,-0.35
2016-12-05T04:06:02.394Z,-0.23
2016-12-05T04:07:16.753Z,-0.26
2016-12-05T04:08:31.060Z,-0.24
2016-12-05T04:09:45.109Z,-0.38
2016-12-05T04:10:59.347Z,-0.35
2016-12-05T04:12:13.618Z,-0.28
2016-12-05T04:13:27.995Z,-0.3
2016-12-05T04:14:42.217Z,-0.33
2016-12-05T04:15:56.460Z,-0.33
2016-12-05T04:17:10.772Z,-0.33
2016-12-05T04:18:25.435Z,-0.3
2016-12-05T04:19:39.672Z,-0.35
2016-12-05T04:20:54.036Z,-0.39
2016-12-05T04:22:08.723Z,-0.45
2016-12-05T04:23:23.257Z,-0.53
2016-12-05T04:24:37.938Z,-0.53
2016-12-05T04:25:52.364Z,-0.57
2016-12-05T04:27:06.617Z,-0.53
2016-12-05T04:28:21.448Z,-0.51
2016-12-05T04:29:36.042Z,-0.66
2016-12-05T04:30:50.822Z,-0.62
2016-12-05T04:32:05.509Z,-0.67
2016-12-05T04:33:19.932Z,-0.78
2016-12-05T04:34:35.483Z,-0.85
2016-12-05T04:36:05.190Z,-0.89
2016-12-05T04:37:20.606Z,-0.91
2016-12-05T04:40:04.336Z,-0.93
2016-12-05T04:41:19.634Z,-0.93
2016-12-05T04:42:35.542Z,-0.87
2016-12-05T04:43:50.631Z,-0.93
2016-12-05T04:45:05.562Z,-0.94
2016-12-05T04:46:20.622Z,-0.94
2016-12-05T04:47:35.009Z,-0.89
2016-12-05T04:48:49.324Z,-0.97
2016-12-05T04:50:04.483Z,-0.94
2016-12-05T04:51:18.809Z,-0.93
2016-12-05T04:52:33.300Z,-0.97
2016-12-05T04:53:47.971Z,-0.96
2016-12-05T04:55:02.196Z,-0.82
2016-12-05T04:56:16.637Z,-0.84
2016-12-05T04:57:30.730Z,-0.85
2016-12-05T04:58:45.228Z,-0.87
2016-12-05T04:59:59.908Z,-0.74
2016-12-05T05:01:14.284Z,-0.69
2016-12-05T05:02:28.686Z,-0.7
2016-12-05T05:03:42.991Z,-0.7
2016-12-05T05:05:12.252Z,-0.7
2016-12-05T05:06:26.455Z,-0.7
2016-12-05T05:07:41.312Z,-0.74
2016-12-05T05:08:55.897Z,-0.72
2016-12-05T05:10:11.079Z,-0.81
2016-12-05T05:11:25.134Z,-0.81
2016-12-05T05:12:39.239Z,-0.81
2016-12-05T05:13:53.513Z,-0.8
2016-12-05T05:15:07.592Z,-0.81
2016-12-05T05:16:22.073Z,-0.72
2016-12-05T05:17:36.914Z,-0.81
2016-12-05T05:18:50.819Z,-0.77
2016-12-05T05:20:04.999Z,-0.7
2016-12-05T05:21:18.755Z,-0.7
2016-12-05T05:22:35.257Z,-0.64
2016-12-05T05:23:49.092Z,-0.75
2016-12-05T05:25:03.429Z,-0.63
2016-12-05T05:26:17.598Z,-0.67
2016-12-05T05:27:31.644Z,-0.67
2016-12-05T05:28:45.849Z,-0.69
2016-12-05T05:29:59.760Z,-0.69
2016-12-05T05:31:13.610Z,-0.66
2016-12-05T05:32:27.981Z,-0.67
2016-12-05T05:33:43.031Z,-0.3
2016-12-05T05:35:00.984Z,0.16
2016-12-05T05:36:15.472Z,0.48
2016-12-05T05:37:29.415Z,0.44
2016-12-05T05:38:44.385Z,0.52
2016-12-05T05:39:58.649Z,0.45
2016-12-05T05:41:12.965Z,0.33
2016-12-05T05:42:26.871Z,0.23
2016-12-05T05:43:41.813Z,-0.02
2016-12-05T05:44:56.281Z,-0.07
2016-12-05T05:46:10.113Z,-0.09
2016-12-05T05:47:24.329Z,-0.06
2016-12-05T05:48:38.221Z,-0.17
2016-12-05T05:49:52.164Z,-0.18
2016-12-05T05:51:06.399Z,-0.17
2016-12-05T05:52:20.940Z,-0.2
2016-12-05T05:53:35.123Z,-0.23
2016-12-05T05:54:49.553Z,-0.33
2016-12-05T05:56:03.528Z,-0.23
2016-12-05T05:57:17.897Z,-0.2
2016-12-05T05:58:32.124Z,-0.21
2016-12-05T05:59:46.133Z,-0.31
2016-12-05T06:01:00.770Z,-0.35
2016-12-05T06:02:14.732Z,-0.35
2016-12-05T06:03:29.293Z,-0.39
2016-12-05T06:04:44.145Z,-0.35
2016-12-05T06:05:59.750Z,-0.33
2016-12-05T06:07:14.192Z,-0.54
2016-12-05T06:08:28.319Z,-0.54
2016-12-05T06:09:42.614Z,-0.54
2016-12-05T06:10:56.638Z,-0.51
2016-12-05T06:12:10.793Z,-0.56
2016-12-05T06:13:24.966Z,-0.72
2016-12-05T06:14:39.011Z,-0.84
2016-12-05T06:15:53.194Z,-1.03
2016-12-05T06:17:07.213Z,-1.22
2016-12-05T06:18:21.283Z,-1.35
2016-12-05T06:19:35.458Z,-1.5
2016-12-05T06:20:49.586Z,-1.68
2016-12-05T06:22:03.497Z,-1.69
2016-12-05T06:23:17.701Z,-1.9
2016-12-05T06:24:31.623Z,-1.86
2016-12-05T06:25:45.425Z,-1.87
2016-12-05T06:26:59.542Z,-1.89
2016-12-05T06:28:14.047Z,-2.02
2016-12-05T06:29:28.262Z,-1.99
2016-12-05T06:30:43.190Z,-2.02
2016-12-05T06:31:57.380Z,-2.04
2016-12-05T06:33:11.890Z,-2.08
2016-12-05T06:34:26.636Z,-2.15
2016-12-05T06:35:41.113Z,-2.05
2016-12-05T06:36:55.849Z,-1.99
2016-12-05T06:38:10.357Z,-2.04
2016-12-05T06:39:27.128Z,-2.11
2016-12-05T06:40:41.602Z,-2.2
2016-12-05T06:41:55.367Z,-2.23
2016-12-05T06:43:09.825Z,-2.04
2016-12-05T06:44:23.754Z,-2.17
2016-12-05T06:45:38.561Z,-2.17
2016-12-05T06:46:52.786Z,-2.14
2016-12-05T06:48:21.730Z,-2.07
2016-12-05T06:49:36.338Z,-2.11
2016-12-05T06:50:50.953Z,-2.11
2016-12-05T06:52:05.075Z,-2.02
2016-12-05T06:53:19.188Z,-2.13
2016-12-05T06:54:33.465Z,-2.08
2016-12-05T06:55:47.854Z,-2.17
2016-12-05T06:57:02.617Z,-2.17
2016-12-05T06:58:17.182Z,-2.2
2016-12-05T06:59:31.645Z,-2.2
2016-12-05T07:00:46.076Z,-2.18
2016-12-05T07:02:00.446Z,-2.32
2016-12-05T07:03:29.803Z,-2.36
2016-12-05T07:04:44.400Z,-2.33
2016-12-05T07:05:58.992Z,-2.42
2016-12-05T07:07:13.307Z,-2.57
2016-12-05T07:08:27.728Z,-2.48
2016-12-05T07:09:42.296Z,-2.45
2016-12-05T07:10:56.593Z,-2.5
2016-12-05T07:12:11.117Z,-2.51
2016-12-05T07:13:25.463Z,-2.51
2016-12-05T07:14:39.137Z,-2.62
2016-12-05T07:15:53.054Z,-2.61
2016-12-05T07:17:07.757Z,-2.51
2016-12-05T07:18:21.851Z,-2.55
2016-12-05T07:19:35.698Z,-2.58
2016-12-05T07:20:49.696Z,-2.5
2016-12-05T07:22:03.499Z,-2.5
2016-12-05T07:23:17.879Z,-2.47
2016-12-05T07:24:31.874Z,-2.44
2016-12-05T07:25:46.008Z,-2.4
2016-12-05T07:26:59.910Z,-2.42
2016-12-05T07:28:13.954Z,-2.4
2016-12-05T07:29:28.362Z,-2.39
2016-12-05T07:30:42.477Z,-2.37
2016-12-05T07:31:57.247Z,-2.32
2016-12-05T07:33:26.005Z,-2.32
2016-12-05T07:34:40.567Z,-2.44
2016-12-05T07:35:54.473Z,-2.42
2016-12-05T07:37:08.460Z,-2.36
2016-12-05T07:38:22.885Z,-2.42
2016-12-05T07:39:36.803Z,-2.44
2016-12-05T07:40:51.326Z,-2.36
2016-12-05T07:42:05.711Z,-2.39
2016-12-05T07:43:19.556Z,-2.37
2016-12-05T07:44:33.771Z,-2.26
2016-12-05T07:45:47.705Z,-2.37
2016-12-05T07:47:01.756Z,-2.37
2016-12-05T07:48:15.489Z,-2.34
2016-12-05T07:49:29.199Z,-2.39
2016-12-05T07:50:43.505Z,-2.4
2016-12-05T07:51:57.714Z,-2.36
2016-12-05T07:53:12.056Z,-2.28
2016-12-05T07:54:25.985Z,-2.37
2016-12-05T07:55:40.077Z,-2.39
2016-12-05T07:56:55.944Z,-2.25
2016-12-05T07:58:10.314Z,-2.17
2016-12-05T07:59:24.614Z,-2.23
2016-12-05T08:00:38.601Z,-2.18
2016-12-05T08:01:52.342Z,-2.2
2016-12-05T08:03:06.150Z,-2.08
2016-12-05T08:04:20.682Z,-2.13
2016-12-05T08:05:34.929Z,-2.11
2016-12-05T08:06:48.958Z,-1.93
2016-12-05T08:08:03.119Z,-1.61
2016-12-05T08:09:16.786Z,-1.69
2016-12-05T08:10:30.710Z,-1.69
2016-12-05T08:11:45.165Z,-1.61
2016-12-05T08:12:58.957Z,-1.61
2016-12-05T08:14:13.012Z,-1.54
2016-12-05T08:15:27.075Z,-1.54
2016-12-05T08:16:41.155Z,-1.45
2016-12-05T08:17:55.459Z,-1.24
2016-12-05T08:19:10.018Z,-1.17
2016-12-05T08:20:23.798Z,-1.11
2016-12-05T08:21:37.957Z,-0.96
2016-12-05T08:22:51.888Z,-0.8
2016-12-05T08:24:05.840Z,-0.69
2016-12-05T08:25:20.380Z,-0.59
2016-12-05T08:26:34.333Z,-0.57
2016-12-05T08:27:48.354Z,-0.49
2016-12-05T08:29:02.746Z,-0.6
2016-12-05T08:30:17.217Z,-0.48
2016-12-05T08:31:31.506Z,-0.54
2016-12-05T08:32:45.819Z,-0.49
2016-12-05T08:34:00.123Z,-0.38
2016-12-05T08:35:14.387Z,-0.42
2016-12-05T08:36:28.935Z,-0.42
2016-12-05T08:37:43.182Z,-0.48
2016-12-05T08:38:58.031Z,-0.56
2016-12-05T08:40:12.093Z,-0.54
2016-12-05T08:41:26.747Z,-0.54
2016-12-05T08:42:41.219Z,-0.63
2016-12-05T08:43:55.596Z,-0.54
2016-12-05T08:45:09.877Z,-0.48
2016-12-05T08:46:23.882Z,-0.53
2016-12-05T08:47:38.093Z,-0.54
2016-12-05T08:48:52.387Z,-0.51
2016-12-05T08:50:06.599Z,-0.35
2016-12-05T08:51:35.580Z,-0.35
2016-12-05T08:52:49.545Z,-0.35
2016-12-05T08:54:04.549Z,-0.21
2016-12-05T08:55:18.293Z,-0.23
2016-12-05T08:56:32.258Z,-0.28
2016-12-05T08:57:46.461Z,-0.24
2016-12-05T08:59:00.258Z,-0.2
2016-12-05T09:00:14.600Z,-0.13
2016-12-05T09:01:28.616Z,-0.2
2016-12-05T09:02:42.656Z,-0.12
2016-12-05T09:03:57.313Z,-0.1
2016-12-05T09:05:11.469Z,-0.07
2016-12-05T09:06:25.729Z,-0.13
2016-12-05T09:07:39.499Z,-0.15
2016-12-05T09:08:53.276Z,-0.15
2016-12-05T09:10:07.132Z,-0.12
2016-12-05T09:11:21.250Z,-0.02
2016-12-05T09:14:07.256Z,-0.05
2016-12-05T09:15:36.147Z,-0.05
2016-12-05T09:16:50.409Z,0
2016-12-05T09:18:05.706Z,0
2016-12-05T09:19:20.339Z,0.06
2016-12-05T09:20:34.152Z,0.15
2016-12-05T09:21:48.171Z,0.2
2016-12-05T09:23:02.629Z,0.15
2016-12-05T09:24:17.592Z,0.18
2016-12-05T09:25:32.054Z,0.23
2016-12-05T09:26:46.258Z,0.26
2016-12-05T09:28:00.108Z,0.33
2016-12-05T09:29:14.422Z,0.39
2016-12-05T09:30:28.946Z,0.33
2016-12-05T09:31:42.687Z,0.47
2016-12-05T09:32:56.352Z,0.37
2016-12-05T09:34:10.235Z,0.44
2016-12-05T09:35:24.203Z,0.39
2016-12-05T09:36:39.224Z,0.4
2016-12-05T09:37:53.782Z,0.73
2016-12-05T09:39:08.378Z,0.91
2016-12-05T09:40:22.778Z,0.76
2016-12-05T09:41:37.325Z,0.96
2016-12-05T09:42:52.062Z,1.18
2016-12-05T09:44:06.617Z,1.36
2016-12-05T09:45:21.036Z,1.57
2016-12-05T09:46:35.857Z,1.49
2016-12-05T09:47:50.090Z,1.32
2016-12-05T09:49:05.042Z,1.3
2016-12-05T09:50:19.348Z,1.18
2016-12-05T09:51:33.216Z,1.09
2016-12-05T09:52:47.151Z,1.03
2016-12-05T09:54:16.216Z,0.92
2016-12-05T09:55:30.823Z,0.95
2016-12-05T09:56:44.787Z,0.89
2016-12-05T09:57:59.125Z,0.81
2016-12-05T09:59:13.111Z,0.85
2016-12-05T10:00:26.976Z,0.92
2016-12-05T10:01:41.521Z,0.82
2016-12-05T10:02:55.647Z,0.96
2016-12-05T10:04:24.476Z,0.85
2016-12-05T10:05:38.305Z,0.96
2016-12-05T10:06:52.472Z,0.99
2016-12-05T10:08:06.804Z,0.89
2016-12-05T10:09:20.814Z,0.92
2016-12-05T10:10:34.940Z,0.86
2016-12-05T10:14:02.697Z,0.95
2016-12-05T10:15:16.734Z,1
2016-12-05T10:16:30.872Z,0.91
2016-12-05T10:17:44.747Z,0.99
2016-12-05T10:18:58.478Z,1.09
2016-12-05T10:20:12.589Z,1.07
2016-12-05T10:21:26.706Z,1.18
2016-12-05T10:22:40.979Z,1.1
2016-12-05T10:23:54.885Z,1.09
2016-12-05T10:25:09.255Z,1.18
2016-12-05T10:26:23.306Z,1.18
2016-12-05T10:27:37.622Z,1.24
2016-12-05T10:28:51.495Z,1.24
2016-12-05T10:30:05.258Z,1.38
2016-12-05T10:31:19.385Z,1.38
2016-12-05T10:33:50.372Z,1.53
2016-12-05T10:35:04.478Z,1.46
2016-12-05T10:36:18.715Z,1.4
2016-12-05T10:37:33.458Z,1.36
2016-12-05T10:38:48.240Z,1.46
2016-12-05T10:40:02.869Z,1.56
2016-12-05T10:41:17.060Z,1.52
2016-12-05T10:42:31.778Z,1.38
2016-12-05T10:44:00.899Z,1.42
2016-12-05T10:45:15.854Z,1.38
2016-12-05T10:46:29.752Z,1.34
2016-12-05T10:47:43.780Z,1.32
2016-12-05T10:48:57.779Z,1.43
2016-12-05T10:50:11.992Z,1.53
2016-12-05T10:51:26.915Z,1.48
2016-12-05T10:52:41.522Z,1.64
2016-12-05T10:53:55.247Z,1.64
2016-12-05T10:55:09.617Z,1.67
2016-12-05T10:56:23.920Z,1.71
2016-12-05T10:57:38.541Z,1.67
2016-12-05T10:58:52.339Z,1.61
2016-12-05T11:00:07.125Z,1.67
2016-12-05T11:01:21.244Z,1.63
2016-12-05T11:02:35.357Z,1.57
2016-12-05T11:04:19.678Z,1.49
2016-12-05T11:05:33.705Z,1.46
2016-12-05T11:06:47.729Z,1.68
2016-12-05T11:08:01.649Z,1.66
2016-12-05T11:09:15.866Z,1.57
2016-12-05T11:10:30.433Z,1.63
2016-12-05T11:11:44.469Z,1.63
2016-12-05T11:12:58.584Z,1.7
2016-12-05T11:14:13.143Z,1.79
2016-12-05T11:15:27.093Z,1.88
2016-12-05T11:16:41.498Z,2.01
2016-12-05T11:17:55.712Z,1.98
2016-12-05T11:19:09.717Z,1.98
2016-12-05T11:20:23.563Z,2.07
2016-12-05T11:21:37.818Z,2.1
2016-12-05T11:22:51.751Z,2.18
2016-12-05T11:24:05.862Z,2.12
2016-12-05T11:25:20.164Z,2.04
2016-12-05T11:26:34.422Z,2.01
2016-12-05T11:27:48.485Z,1.86
2016-12-05T11:29:02.686Z,2.12
2016-12-05T11:30:16.748Z,2.08
2016-12-05T11:31:31.303Z,2.25
2016-12-05T11:32:46.016Z,2.19
2016-12-05T11:34:00.701Z,2.1
2016-12-05T11:35:15.431Z,2.12
2016-12-05T11:36:29.815Z,2.14
2016-12-05T11:37:44.496Z,2.1
2016-12-05T11:38:59.136Z,2.08
2016-12-05T11:40:13.848Z,2.18
2016-12-05T11:41:27.672Z,2.22
2016-12-05T11:42:41.620Z,2.28
2016-12-05T11:43:56.242Z,2.22
2016-12-05T11:45:10.718Z,2.32
2016-12-05T11:46:24.680Z,2.39
2016-12-05T11:47:38.816Z,2.23
2016-12-05T11:48:52.920Z,2.21
2016-12-05T11:50:09.576Z,1.88
2016-12-05T11:51:23.784Z,2
2016-12-05T11:52:38.382Z,1.85
2016-12-05T11:53:52.313Z,2.01
2016-12-05T11:55:06.341Z,2.14
2016-12-05T11:56:20.402Z,2.19
2016-12-05T11:57:34.742Z,2.18
2016-12-05T11:58:49.275Z,2.14
2016-12-05T12:00:03.179Z,2.1
2016-12-05T12:01:32.098Z,2.08
2016-12-05T12:02:46.168Z,2.07
2016-12-05T12:05:43.985Z,1.92
2016-12-05T12:06:57.965Z,2
2016-12-05T12:08:12.173Z,1.89
2016-12-05T12:09:26.104Z,1.97
2016-12-05T12:10:40.400Z,1.86
2016-12-05T12:11:54.609Z,1.89
2016-12-05T12:13:08.821Z,1.86
2016-12-05T12:14:23.005Z,1.85
2016-12-05T12:15:37.429Z,1.85
2016-12-05T12:16:51.706Z,1.86
2016-12-05T12:18:06.086Z,1.81
2016-12-05T12:19:20.433Z,1.92
2016-12-05T12:20:34.676Z,1.78
2016-12-05T12:21:48.769Z,1.75
2016-12-05T12:23:03.421Z,1.79
2016-12-05T12:24:17.398Z,1.84
2016-12-05T12:25:31.364Z,1.85
2016-12-05T12:26:45.197Z,2.04
2016-12-05T12:27:59.574Z,2.08
2016-12-05T12:29:13.669Z,2.12
2016-12-05T12:30:27.875Z,2.12
2016-12-05T12:31:42.033Z,2.08
2016-12-05T12:32:55.906Z,2.03
2016-12-05T12:34:10.211Z,1.98
2016-12-05T12:35:39.664Z,1.88
2016-12-05T12:36:53.829Z,1.81
2016-12-05T12:38:07.881Z,1.71
2016-12-05T12:39:22.221Z,1.75
2016-12-05T12:40:36.307Z,1.67
2016-12-05T12:41:50.229Z,1.63
2016-12-05T12:43:04.699Z,1.76
2016-12-05T12:44:18.674Z,1.74
2016-12-05T12:45:33.679Z,1.79
2016-12-05T12:46:48.099Z,1.76
2016-12-05T12:50:59.665Z,1.76
2016-12-05T12:52:13.607Z,1.63
2016-12-05T12:53:27.961Z,1.64
2016-12-05T12:54:42.439Z,1.63
2016-12-05T12:55:56.749Z,1.68
2016-12-05T12:57:11.815Z,1.64
2016-12-05T12:58:26.460Z,1.74
2016-12-05T12:59:41.137Z,1.76
2016-12-05T13:00:55.061Z,1.78
2016-12-05T13:02:08.973Z,1.78
2016-12-05T13:03:23.136Z,1.78
2016-12-05T13:04:37.377Z,1.63
2016-12-05T13:05:51.726Z,1.6
2016-12-05T13:07:06.298Z,1.49
2016-12-05T13:08:20.320Z,1.52
2016-12-05T13:09:43.165Z,1.56
2016-12-05T13:10:58.474Z,1.63
2016-12-05T13:12:12.518Z,1.56
2016-12-05T13:13:26.447Z,1.38
2016-12-05T13:14:55.169Z,1.49
2016-12-05T13:16:09.779Z,1.49
2016-12-05T13:17:24.199Z,1.49
2016-12-05T13:18:37.966Z,1.46
2016-12-05T13:19:51.885Z,1.48
2016-12-05T13:21:05.905Z,1.48
2016-12-05T13:22:20.120Z,1.32
2016-12-05T13:23:34.715Z,1.43
2016-12-05T13:24:48.661Z,1.45
2016-12-05T13:26:02.767Z,1.42
2016-12-05T13:27:16.899Z,1.5
2016-12-05T13:28:31.294Z,1.52
2016-12-05T13:29:45.225Z,1.5
2016-12-05T13:31:00.056Z,1.53
2016-12-05T13:32:14.055Z,1.61
2016-12-05T13:33:28.399Z,1.64
2016-12-05T13:34:43.141Z,1.67
2016-12-05T13:35:57.152Z,1.66
2016-12-05T13:37:11.229Z,1.57
2016-12-05T13:38:25.103Z,1.45
2016-12-05T13:39:39.088Z,1.5
2016-12-05T13:40:53.366Z,1.42
2016-12-05T13:42:07.771Z,1.39
2016-12-05T13:43:22.047Z,1.34
2016-12-05T13:44:36.288Z,1.45
2016-12-05T13:45:50.320Z,1.58
2016-12-05T13:47:04.374Z,1.53
2016-12-05T13:48:18.051Z,1.48
2016-12-05T13:49:32.720Z,1.53
2016-12-05T13:50:47.135Z,1.46
2016-12-05T13:52:01.699Z,1.38
2016-12-05T13:53:15.787Z,1.49
2016-12-05T13:54:29.801Z,1.4
2016-12-05T13:55:43.516Z,1.36
2016-12-05T13:56:57.565Z,1.34
2016-12-05T13:58:11.948Z,1.2
2016-12-05T13:59:26.127Z,1.14
2016-12-05T14:00:39.813Z,1.27
2016-12-05T14:01:55.701Z,1.27
2016-12-05T14:03:09.548Z,1.07
2016-12-05T14:04:23.638Z,1.16
2016-12-05T14:05:38.198Z,1.22
2016-12-05T14:06:52.003Z,1.1
2016-12-05T14:08:06.395Z,1.04
2016-12-05T14:09:20.519Z,1.07
2016-12-05T14:10:50.007Z,1.09
2016-12-05T14:12:04.193Z,1.12
2016-12-05T14:13:18.165Z,1
2016-12-05T14:14:32.000Z,1
2016-12-05T14:15:46.230Z,0.99
2016-12-05T14:17:00.208Z,1.09
2016-12-05T14:18:14.183Z,0.95
2016-12-05T14:19:27.879Z,0.91
2016-12-05T14:20:41.713Z,0.91
2016-12-05T14:21:55.931Z,0.91
2016-12-05T14:23:10.087Z,1
2016-12-05T14:24:24.409Z,0.92
2016-12-05T14:25:38.302Z,1.06
2016-12-05T14:26:54.729Z,0.99
2016-12-05T14:28:09.080Z,1.09
2016-12-05T14:29:23.143Z,1.07
2016-12-05T14:30:52.219Z,1.13
2016-12-05T14:32:06.654Z,1.12
2016-12-05T14:33:20.845Z,1.06
2016-12-05T14:34:35.774Z,0.92
2016-12-05T14:35:50.650Z,0.89
2016-12-05T14:37:04.513Z,0.86
2016-12-05T14:38:18.925Z,0.82
2016-12-05T14:39:32.921Z,1.02
2016-12-05T14:40:47.031Z,1.12
2016-12-05T14:42:01.724Z,1.12
2016-12-05T14:43:15.519Z,1.13
2016-12-05T14:44:29.326Z,1.14
2016-12-05T14:45:43.705Z,1.07
2016-12-05T14:46:59.157Z,1.16
2016-12-05T14:48:13.556Z,1.2
2016-12-05T14:49:27.719Z,1.14
2016-12-05T14:53:24.442Z,1.07
2016-12-05T14:54:38.881Z,1.09
2016-12-05T14:55:53.080Z,0.96
2016-12-05T14:57:07.437Z,1.03
2016-12-05T14:58:21.250Z,0.88
2016-12-05T14:59:35.144Z,1.03
2016-12-05T15:00:49.985Z,1.02
2016-12-05T15:02:03.705Z,0.99
2016-12-05T15:03:17.410Z,1.07
2016-12-05T15:04:31.626Z,1.16
2016-12-05T15:05:45.677Z,1.22
2016-12-05T15:06:59.867Z,1.14
2016-12-05T15:08:13.753Z,1.18
2016-12-05T15:09:28.150Z,1.12
2016-12-05T15:10:42.544Z,1.1
2016-12-05T15:11:56.233Z,1.13
2016-12-05T15:13:10.229Z,1.09
2016-12-05T15:14:39.385Z,1.03
2016-12-05T15:15:53.589Z,0.88
2016-12-05T15:17:07.337Z,0.92
2016-12-05T15:18:21.311Z,1
2016-12-05T15:19:35.088Z,0.99
2016-12-05T15:20:49.317Z,0.89
2016-12-05T15:22:02.973Z,0.99
2016-12-05T15:23:17.151Z,0.96
2016-12-05T15:24:31.630Z,0.95
2016-12-05T15:25:45.368Z,0.95
2016-12-05T15:26:59.775Z,0.86
2016-12-05T15:28:13.813Z,0.88
2016-12-05T15:29:28.337Z,0.85
2016-12-05T15:30:43.155Z,0.88
2016-12-05T15:31:57.369Z,0.86
2016-12-05T15:33:11.604Z,0.91
2016-12-05T15:34:25.960Z,0.88
2016-12-05T15:35:40.246Z,0.96
2016-12-05T15:36:55.657Z,0.89
2016-12-05T15:38:09.948Z,0.96
2016-12-05T15:39:24.248Z,0.91
2016-12-05T15:40:38.306Z,0.86
2016-12-05T15:41:52.452Z,0.81
2016-12-05T15:43:06.401Z,0.89
2016-12-05T15:44:21.283Z,0.89
2016-12-05T15:45:38.374Z,0.88
2016-12-05T15:46:52.479Z,0.91
2016-12-05T15:48:06.389Z,1
2016-12-05T15:49:20.676Z,0.84
2016-12-05T15:50:49.860Z,0.84
2016-12-05T15:52:18.768Z,0.86
2016-12-05T15:53:33.893Z,0.88
2016-12-05T15:54:48.101Z,0.96
2016-12-05T15:56:04.067Z,0.92
2016-12-05T15:57:19.922Z,0.88
2016-12-05T15:58:34.137Z,0.96
2016-12-05T15:59:48.482Z,0.91
2016-12-05T16:01:17.795Z,0.89
2016-12-05T16:02:32.506Z,0.86
2016-12-05T16:03:47.578Z,0.91
2016-12-05T16:05:01.956Z,0.91
2016-12-05T16:06:16.453Z,0.86
2016-12-05T16:07:30.725Z,0.88
2016-12-05T16:10:14.863Z,0.91
2016-12-05T16:11:28.969Z,0.96
2016-12-05T16:12:43.835Z,0.84
2016-12-05T16:13:58.943Z,0.95
2016-12-05T16:15:13.052Z,0.89
2016-12-05T16:16:27.505Z,0.86
2016-12-05T16:17:41.945Z,0.91
2016-12-05T16:18:56.617Z,0.89
2016-12-05T16:20:11.528Z,0.85
2016-12-05T16:21:26.548Z,1
2016-12-05T16:22:41.000Z,0.88
2016-12-05T16:23:55.241Z,0.86
2016-12-05T16:25:09.702Z,0.86
2016-12-05T16:26:23.938Z,0.88
2016-12-05T16:27:38.581Z,0.73
2016-12-05T16:28:52.784Z,0.74
2016-12-05T16:30:07.440Z,0.78
2016-12-05T16:31:22.136Z,0.7
2016-12-05T16:36:18.012Z,0.59
2016-12-05T16:37:46.969Z,0.63
2016-12-05T16:39:00.673Z,0.63
2016-12-05T16:40:16.429Z,0.45
2016-12-05T16:41:30.738Z,0.55
2016-12-05T16:42:45.403Z,0.58
2016-12-05T16:44:01.472Z,0.56
2016-12-05T16:45:30.994Z,0.52
2016-12-05T16:46:45.461Z,0.59
2016-12-05T16:48:00.228Z,0.63
2016-12-05T16:49:15.376Z,0.55